Latest Weather Observations for Laverton

IDW60801

Issued at 2:13 am WST Monday 9 December 2019 (issued every 10 minutes, with the page automatically refreshed every 10 minutes)

About weather observations | Map of weather stations | Latest weather observations for WA | Other Formats
Station Details ID: 012305 Name: LAVERTON AERO Lat: -28.61 Lon: 122.42 Height: 464.3 m
Data from the previous 72 hours. | See also: Recent months at Laverton
Date/Time
WST
Temp
°C
App
Temp
°C
Dew
Point
°C
Rel
Hum
%
Delta-T
°C
Wind Press
QNH
hPa
Press
MSL
hPa
Rain since
9am
mm
Dir  Spd
km/h
Gust
km/h
Spd
kts
Gust
kts
09/02:00am 20.6 13.6 9.8 50 5.9 ESE 37 59 20 32 1016.9 1013.9 0.0
09/01:51am 20.9 14.3 10.1 50 6.0 ESE 35 54 19 29 1016.7 1013.7 0.0
09/01:30am 21.5 14.1 9.7 47 6.5 ESE 39 54 21 29 1016.3 1013.4 0.0
09/01:00am 22.2 15.1 9.4 44 7.0 ESE 37 54 20 29 1016.2 1013.3 0.0
09/12:55am 22.2 15.8 9.4 44 7.0 ESE 33 54 18 29 1016.2 1013.3 0.0
09/12:30am 22.9 15.4 9.3 42 7.5 ESE 39 50 21 27 1016.3 1013.4 0.0
09/12:22am 23.6 17.4 9.2 40 7.9 ESE 32 46 17 25 1016.3 1013.4 0.0
09/12:00am 24.3 16.6 8.7 37 8.6 SE 39 54 21 29 1016.2 1013.3 0.0
 
Date/Time
WST
Temp
°C
App
Temp
°C
Dew
Point
°C
Rel
Hum
%
Delta-T
°C
Wind Press
QNH
hPa
Press
MSL
hPa
Rain since
9am
mm
Dir  Spd
km/h
Gust
km/h
Spd
kts
Gust
kts
08/11:30pm 26.3 18.0 7.8 31 10.1 SE 41 54 22 29 1015.9 1012.9 0.0
08/11:29pm 26.4 18.4 7.4 30 10.3 SE 39 54 21 29 1015.8 1012.8 0.0
08/11:00pm 28.3 21.9 5.2 23 12.2 SSE 28 35 15 19 1015.8 1012.8 0.0
08/10:30pm 29.2 23.5 6.6 24 12.3 SSE 26 37 14 20 1015.8 1012.8 0.0
08/10:00pm 29.6 24.2 6.3 23 12.6 SSE 24 32 13 17 1015.8 1012.8 0.0
08/09:30pm 30.0 25.4 6.6 23 12.8 SSE 20 26 11 14 1015.6 1012.6 0.0
08/09:00pm 30.6 25.2 6.5 22 13.2 SSE 24 35 13 19 1015.3 1012.3 0.0
08/08:30pm 31.2 26.2 6.3 21 13.6 S 22 28 12 15 1014.7 1011.7 0.0
08/08:00pm 31.7 26.5 5.3 19 14.2 S 22 33 12 18 1014.2 1011.2 0.0
08/07:30pm 32.2 28.2 4.9 18 14.7 SSE 15 19 8 10 1013.7 1010.7 0.0
08/07:00pm 32.7 28.6 4.5 17 15.1 S 15 20 8 11 1013.2 1010.2 0.0
08/06:30pm 33.3 28.2 4.1 16 15.6 S 20 26 11 14 1012.8 1009.8 0.0
08/06:00pm 33.8 29.4 4.5 16 15.8 S 17 24 9 13 1012.4 1009.4 0.0
08/05:30pm 34.1 29.3 4.7 16 15.9 S 19 28 10 15 1012.2 1009.2 0.0
08/05:00pm 34.9 29.5 4.4 15 16.5 SSW 22 30 12 16 1011.7 1008.7 0.0
08/04:30pm 35.4 30.6 4.8 15 16.7 SSW 19 32 10 17 1011.6 1008.6 0.0
08/04:00pm 35.5 31.3 5.8 16 16.5 SSW 17 28 9 15 1011.7 1008.7 0.0
08/03:30pm 34.8 29.9 5.3 16 16.2 SSW 20 32 11 17 1011.7 1008.7 0.0
08/03:00pm 34.9 30.6 5.4 16 16.2 SW 17 26 9 14 1012.2 1009.2 0.0
08/02:30pm 34.9 31.8 5.4 16 16.2 NNW 11 15 6 8 1012.3 1009.3 0.0
08/02:00pm 34.9 30.6 5.4 16 16.2 SW 17 28 9 15 1012.4 1009.4 0.0
08/01:30pm 34.4 30.6 5.8 17 15.8 SW 15 33 8 18 1012.5 1009.5 0.0
08/01:00pm 34.2 30.5 6.5 18 15.4 SW 15 24 8 13 1012.6 1009.6 0.0
08/12:30pm 34.6 31.4 6.8 18 15.6 SSW 13 22 7 12 1012.8 1009.8 0.0
08/12:00pm 34.2 31.1 7.3 19 15.2 ESE 13 22 7 12 1013.1 1010.1 0.0
08/11:30am 33.2 30.6 7.9 21 14.3 SW 11 26 6 14 1013.4 1010.4 0.0
08/11:00am 32.4 29.5 8.0 22 13.8 SSE 13 28 7 15 1013.7 1010.7 0.0
08/10:30am 30.8 27.3 7.3 23 13.0 S 15 20 8 11 1014.2 1011.2 0.0
08/10:00am 30.9 26.8 8.6 25 12.6 S 20 26 11 14 1014.3 1011.3 0.0
08/09:30am 30.5 27.2 9.4 27 12.1 SSE 17 28 9 15 1014.4 1011.4 0.0
08/09:00am 29.0 25.4 9.7 30 11.0 SSE 19 26 10 14 1014.6 1011.6 0.0
08/08:30am 28.2 23.8 9.0 30 10.8 SSE 22 32 12 17 1014.7 1011.7 0.0
08/08:00am 27.3 22.6 9.2 32 10.2 S 24 33 13 18 1014.6 1011.6 0.0
08/07:30am 26.6 21.3 8.6 32 10.0 SSE 26 33 14 18 1014.5 1011.5 0.0
08/07:00am 26.5 21.6 8.5 32 10.0 SSE 24 35 13 19 1014.3 1011.3 0.0
08/06:30am 26.6 21.9 7.6 30 10.4 SSE 22 32 12 17 1013.8 1010.8 0.0
08/06:00am 26.6 21.6 6.6 28 10.7 SSE 22 32 12 17 1013.5 1010.5 0.0
08/05:30am 26.6 23.0 6.6 28 10.7 S 15 20 8 11 1012.9 1009.9 0.0
08/05:00am 26.6 22.7 7.1 29 10.5 SSW 17 20 9 11 1012.3 1009.3 0.0
08/04:30am 27.1 21.5 7.0 28 10.9 S 26 35 14 19 1011.4 1008.4 0.0
08/04:00am 27.6 22.1 5.8 25 11.6 S 24 35 13 19 1011.8 1008.8 0.0
08/03:30am 28.1 22.9 3.7 21 12.5 S 20 26 11 14 1011.3 1008.3 0.0
08/03:00am 28.5 22.8 2.7 19 13.1 S 22 28 12 15 1010.9 1007.9 0.0
08/02:30am 28.6 24.2 2.7 19 13.1 SSW 15 20 8 11 1011.3 1008.3 0.0
08/02:00am 29.2 24.3 1.7 17 13.8 SSW 17 24 9 13 1010.7 1007.7 0.0
08/01:30am 29.7 24.7 1.2 16 14.2 SSW 17 24 9 13 1010.8 1007.8 0.0
08/01:00am 30.0 24.9 0.6 15 14.5 SSW 17 22 9 12 1010.6 1007.6 0.0
08/12:30am 30.9 25.2 0.3 14 15.1 SSW 20 24 11 13 1010.7 1007.7 0.0
08/12:00am 31.5 26.0 1.8 15 15.1 SSW 20 33 11 18 1010.7 1007.7 0.0
 
Date/Time
WST
Temp
°C
App
Temp
°C
Dew
Point
°C
Rel
Hum
%
Delta-T
°C
Wind Press
QNH
hPa
Press
MSL
hPa
Rain since
9am
mm
Dir  Spd
km/h
Gust
km/h
Spd
kts
Gust
kts
07/11:30pm 32.1 26.5 1.3 14 15.6 SW 20 30 11 16 1010.5 1007.5 0.0
07/11:00pm 30.7 28.9 9.6 27 12.1 SSE 9 15 5 8 1010.1 1007.0 0.0
07/10:30pm 29.7 27.4 11.7 33 10.7 E 15 17 8 9 1009.9 1006.8 0.0
07/10:00pm 30.4 28.2 10.9 30 11.4 ENE 13 17 7 9 1010.4 1007.4 0.0
07/09:30pm 31.9 28.6 8.2 23 13.4 SE 15 20 8 11 1009.7 1006.6 0.0
07/09:00pm 32.9 29.6 6.2 19 14.7 W 13 30 7 16 1010.3 1007.3 0.0
07/08:45pm 32.5 28.4 8.7 23 13.6 NW 20 48 11 26 1010.6 1007.6 0.0
07/08:30pm 34.9 31.6 2.4 13 17.0 SW 9 13 5 7 1009.5 1006.5 0.0
07/08:00pm 35.5 31.1 2.9 13 17.3 SSW 15 20 8 11 1008.9 1005.9 0.0
07/07:30pm 35.8 30.3 2.0 12 17.7 SW 20 43 11 23 1008.7 1005.7 0.0
07/07:26pm 35.8 32.0 2.0 12 17.7 SW 11 43 6 23 1008.5 1005.5 0.0
07/07:00pm 36.3 33.0 2.4 12 17.9 S 9 15 5 8 1007.8 1004.7 0.0
07/06:30pm 36.9 32.7 1.6 11 18.5 SW 13 19 7 10 1007.6 1004.5 0.0
07/06:00pm 37.7 33.2 2.2 11 18.9 SW 15 20 8 11 1007.5 1004.4 0.0
07/05:30pm 37.2 33.4 1.8 11 18.6 SSW 11 19 6 10 1006.9 1003.9 0.0
07/05:00pm 37.8 33.7 2.3 11 18.9 SW 13 22 7 12 1006.6 1003.6 0.0
07/04:30pm 37.8 29.9 2.3 11 18.9 WSW 33 46 18 25 1006.5 1003.5 0.0
07/04:18pm 36.7 28.1 2.7 12 18.1 W 37 74 20 40 1006.2 1003.1 0.0
07/04:16pm 37.2 29.6 3.1 12 18.3 W 32 54 17 29 1006.5 1003.5 0.0
07/04:00pm 38.4 33.4 1.4 10 19.5 WSW 17 32 9 17 1006.6 1003.6 0.0
07/03:30pm 38.3 33.3 1.3 10 19.4 W 17 22 9 12 1006.8 1003.8 0.0
07/03:00pm 38.4 32.8 1.4 10 19.5 WSW 20 30 11 16 1006.9 1003.9 0.0
07/02:30pm 38.0 29.3 -0.3 9 19.6 NW 35 57 19 31 1007.2 1004.2 0.0
07/02:28pm 38.2 28.8 -0.2 9 19.7 NW 39 57 21 31 1007.2 1004.2 0.0
07/02:25pm 37.8 28.3 -0.5 9 19.5 WNW 39 57 21 31 1007.4 1004.3 0.0
07/02:00pm 39.1 30.2 0.5 9 20.1 WNW 37 56 20 30 1007.4 1004.3 0.0
07/01:55pm 39.6 31.4 -0.8 8 20.7 WNW 32 56 17 30 1007.2 1004.2 0.0
07/01:52pm 39.8 32.0 -0.6 8 20.8 WNW 30 44 16 24 1007.2 1004.2 0.0
07/01:30pm 40.0 35.1 -0.5 8 20.9 W 15 28 8 15 1006.9 1003.9 0.0
07/01:00pm 39.9 33.3 -0.5 8 20.9 WSW 24 37 13 20 1007.0 1004.0 0.0
07/12:30pm 40.2 34.4 -0.3 8 21.0 SSW 20 32 11 17 1007.2 1004.2 0.0
07/12:00pm 40.1 34.3 -0.4 8 21.0 WSW 20 28 11 15 1007.5 1004.4 0.0
07/11:30am 39.4 34.1 -0.9 8 20.6 WSW 17 32 9 17 1007.8 1004.7 0.0
07/11:00am 40.0 34.5 -2.3 7 21.3 WSW 17 32 9 17 1008.0 1004.9 0.0
07/10:30am 38.9 33.9 -1.3 8 20.3 SW 15 26 8 14 1008.4 1005.4 0.0
07/10:00am 38.9 33.3 -3.1 7 20.7 WSW 17 26 9 14 1008.4 1005.4 0.0
07/09:30am 38.0 32.5 -5.8 6 20.6 SSW 15 22 8 12 1008.4 1005.4 0.0
07/09:00am 38.0 31.9 -8.1 5 20.9 WSW 17 24 9 13 1008.5 1005.5 0.0
07/08:30am 36.5 30.9 -6.8 6 19.8 W 15 20 8 11 1008.7 1005.7 0.0
07/08:00am 36.2 31.3 -7.0 6 19.7 NW 11 19 6 10 1008.8 1005.8 0.0
07/07:30am 35.6 30.7 -7.5 6 19.3 NNW 11 22 6 12 1009.0 1006.0 0.0
07/07:00am 34.4 30.0 -6.3 7 18.5 N 9 19 5 10 1009.0 1006.0 0.0
07/06:30am 33.4 28.3 -5.3 8 17.7 NNE 13 17 7 9 1008.9 1005.9 0.0
07/06:00am 32.3 25.8 -6.1 8 17.2 NNE 20 26 11 14 1008.6 1005.6 0.0
07/05:30am 32.8 26.9 -5.7 8 17.4 NNE 17 24 9 13 1008.8 1005.8 0.0
07/05:00am 32.4 26.1 -6.0 8 17.3 N 19 24 10 13 1008.7 1005.7 0.0
07/04:30am 32.6 27.0 -5.9 8 17.3 NNW 15 24 8 13 1008.6 1005.6 0.0
07/04:00am 31.6 26.5 -5.1 9 16.7 NNW 13 19 7 10 1008.4 1005.4 0.0
07/03:30am 32.2 25.9 -6.2 8 17.1 NNE 19 28 10 15 1007.9 1004.8 0.0
07/03:00am 32.8 26.5 -5.7 8 17.5 NNE 19 26 10 14 1008.0 1004.9 0.0
07/02:40am 33.3 26.9 -5.4 8 17.7 NNE 20 48 11 26 1008.0 1004.9 0.0
07/02:30am 32.3 26.7 -6.1 8 17.2 N 15 20 8 11 1008.4 1005.4 0.0
07/02:00am 32.0 25.7 -6.3 8 17.1 N 19 26 10 14 1008.4 1005.4 0.0
07/01:30am 31.9 25.9 -6.4 8 17.0 NNE 17 22 9 12 1008.4 1005.4 0.0
07/01:00am 32.8 25.9 -5.7 8 17.5 NNE 22 28 12 15 1008.6 1005.6 0.0
07/12:30am 32.7 26.6 -7.6 7 17.6 N 17 24 9 13 1008.9 1005.9 0.0
07/12:00am 33.4 27.4 -7.0 7 18.0 NNW 17 24 9 13 1009.3 1006.3 0.0
 
Date/Time
WST
Temp
°C
App
Temp
°C
Dew
Point
°C
Rel
Hum
%
Delta-T
°C
Wind Press
QNH
hPa
Press
MSL
hPa
Rain since
9am
mm
Dir  Spd
km/h
Gust
km/h
Spd
kts
Gust
kts
06/11:30pm 33.8 27.4 -6.8 7 18.2 NE 19 26 10 14 1009.1 1006.1 0.0
06/11:00pm 33.1 27.4 -7.3 7 17.9 N 15 19 8 10 1009.9 1006.8 0.0
06/10:30pm 34.2 28.4 -8.5 6 18.7 ENE 15 19 8 10 1009.3 1006.3 0.0
06/10:00pm 34.5 28.0 -8.2 6 18.8 NE 19 26 10 14 1009.3 1006.3 0.0
06/09:30pm 34.9 28.4 -8.0 6 19.0 NE 19 24 10 13 1009.3 1006.3 0.0
06/09:00pm 35.1 28.6 -7.8 6 19.1 ENE 19 24 10 13 1009.2 1006.2 0.0
06/08:30pm 35.3 29.0 -10.0 5 19.5 ENE 17 20 9 11 1009.2 1006.2 0.0
06/08:00pm 36.1 29.9 -9.4 5 19.9 ENE 17 20 9 11 1009.0 1006.0 0.0
06/07:30pm 37.0 30.8 -8.8 5 20.4 ENE 17 20 9 11 1009.0 1006.0 0.0
06/07:00pm 38.2 31.9 -10.8 4 21.4 ENE 17 20 9 11 1008.9 1005.9 0.0
06/06:30pm 39.3 33.0 -10.1 4 21.9 ENE 17 22 9 12 1008.8 1005.8 0.0
06/06:00pm 40.4 33.6 -9.3 4 22.5 NE 20 30 11 16 1008.6 1005.6 0.0
06/05:30pm 40.8 35.3 -9.1 4 22.7 NNE 13 20 7 11 1008.4 1005.4 0.0
06/05:00pm 41.3 35.9 -8.7 4 23.0 NE 13 19 7 10 1008.5 1005.5 0.0
06/04:30pm 41.7 35.0 -8.5 4 23.2 NNW 20 33 11 18 1008.7 1005.7 0.0
06/04:00pm 41.5 34.4 -8.6 4 23.1 ENE 22 35 12 19 1008.8 1005.8 0.0
06/03:30pm 41.9 35.4 -8.3 4 23.3 NE 19 28 10 15 1009.0 1006.0 0.0
06/03:00pm 41.7 35.2 -8.5 4 23.3 NE 19 33 10 18 1009.5 1006.5 0.0
06/02:30pm 42.4 36.7 -8.0 4 23.6 N 15 24 8 13 1010.0 1006.9 0.0
06/02:00pm 41.5 34.8 -8.6 4 23.1 N 20 35 11 19 1010.4 1007.4 0.0
06/01:30pm 41.8 35.3 -8.4 4 23.3 NE 19 33 10 18 1010.8 1007.8 0.0
06/01:00pm 40.9 34.4 -6.1 5 22.4 N 20 35 11 19 1011.2 1008.2 0.0
06/12:30pm 40.3 33.0 -6.5 5 22.1 NE 24 35 13 19 1011.7 1008.7 0.0
06/12:00pm 40.8 33.4 -3.8 6 22.0 NE 26 35 14 19 1012.2 1009.2 0.0
06/11:30am 39.4 32.5 -2.7 7 20.9 NNE 24 37 13 20 1012.7 1009.7 0.0
06/11:00am 38.3 31.9 -1.7 8 20.0 NE 22 50 12 27 1013.3 1010.3 0.0
06/10:56am 39.0 32.7 -1.2 8 20.4 NE 22 50 12 27 1013.2 1010.2 0.0
06/10:30am 37.1 30.8 -1.0 9 19.2 NE 22 35 12 19 1013.7 1010.7 0.0
06/10:00am 35.3 29.2 0.4 11 17.7 NE 22 32 12 17 1014.2 1011.2 0.0
06/09:30am 34.0 28.1 1.7 13 16.6 NE 22 33 12 18 1014.5 1011.5 0.0
06/09:00am 31.9 26.6 3.0 16 15.0 ENE 20 28 11 15 1014.6 1011.6 0.0
06/08:30am 30.5 24.3 4.3 19 13.8 E 26 35 14 19 1014.6 1011.6 0.0
06/08:00am 28.8 23.5 5.0 22 12.6 E 22 32 12 17 1014.8 1011.8 0.0
06/07:30am 28.0 21.3 5.6 24 11.9 E 30 39 16 21 1014.9 1011.9 0.0
06/07:00am 26.8 18.7 5.1 25 11.3 E 37 46 20 25 1014.5 1011.5 0.0
06/06:30am 26.1 19.0 5.7 27 10.7 E 32 41 17 22 1014.3 1011.3 0.0
06/06:00am 24.7 16.8 6.0 30 9.8 E 37 48 20 26 1013.8 1010.8 0.0
06/05:30am 23.8 16.8 6.1 32 9.2 E 32 43 17 23 1013.8 1010.8 0.0
06/05:00am 23.6 17.4 6.0 32 9.2 ESE 28 35 15 19 1013.7 1010.7 0.0
06/04:30am 23.7 19.0 6.0 32 9.2 ESE 20 30 11 16 1013.7 1010.7 0.0
06/04:00am 24.1 19.0 5.9 31 9.5 ESE 22 28 12 15 1013.6 1010.6 0.0
06/03:30am 24.6 18.7 5.9 30 9.8 ESE 26 35 14 19 1013.4 1010.4 0.0
06/03:00am 25.2 19.4 6.4 30 10.0 ESE 26 35 14 19 1013.4 1010.4 0.0
06/02:30am 25.7 19.8 7.3 31 9.9 ESE 28 39 15 21 1013.2 1010.2 0.0

Other formats

Comma delimited format used in spreadsheet applications
http://www.bom.gov.au/fwo/IDW60801/IDW60801.94449.axf

JavaScript Object Notation format (JSON) in row-major order
http://www.bom.gov.au/fwo/IDW60801/IDW60801.94449.json

Data quality

Most of these data are generated automatically and are frequently updated. Quality checks on data are not normally performed. It is possible for incorrect values to appear. Refer to information at About Latest Weather Observations and please check the disclaimer before using these data.